createdAt,value
2018-03-04T00:00:05.077Z,-3.0
2018-03-04T00:05:02.917Z,-2.9
2018-03-04T00:10:02.491Z,-2.9
2018-03-04T00:15:02.974Z,-3.0
2018-03-04T00:20:02.466Z,-3.0
2018-03-04T00:25:03.063Z,-3.0
2018-03-04T00:30:02.541Z,-3.0
2018-03-04T00:35:03.023Z,-3.0
2018-03-04T00:40:02.587Z,-3.0
2018-03-04T00:45:02.409Z,-3.0
2018-03-04T00:50:03.395Z,-3.0
2018-03-04T00:55:02.858Z,-3.0
2018-03-04T01:00:02.431Z,-2.9
2018-03-04T01:05:02.454Z,-2.9
2018-03-04T01:10:02.852Z,-2.9
2018-03-04T01:15:03.396Z,-2.7
2018-03-04T01:20:02.930Z,-2.7
2018-03-04T01:25:02.462Z,-2.7
2018-03-04T01:30:02.989Z,-2.5
2018-03-04T01:35:02.673Z,-2.5
2018-03-04T01:40:03.269Z,-2.5
2018-03-04T01:45:02.773Z,-2.5
2018-03-04T01:50:03.228Z,-2.2
2018-03-04T01:55:02.723Z,-2.2
2018-03-04T02:00:03.296Z,-2.2
2018-03-04T02:05:02.844Z,-2.2
2018-03-04T02:10:02.480Z,-2.2
2018-03-04T02:15:02.947Z,-2.2
2018-03-04T02:20:02.507Z,-2.0
2018-03-04T02:25:03.109Z,-2.0
2018-03-04T02:30:02.816Z,-2.0
2018-03-04T02:35:02.848Z,-2.0
2018-03-04T02:40:02.430Z,-1.8
2018-03-04T02:45:02.922Z,-1.8
2018-03-04T02:50:02.402Z,-1.8
2018-03-04T02:55:02.860Z,-1.7
2018-03-04T03:00:02.430Z,-1.7
2018-03-04T03:05:02.892Z,-1.5
2018-03-04T03:10:02.470Z,-1.5
2018-03-04T03:15:02.959Z,-1.5
2018-03-04T03:20:02.517Z,-1.5
2018-03-04T03:25:03.045Z,-1.2
2018-03-04T03:30:02.554Z,-1.2
2018-03-04T03:35:03.110Z,-1.2
2018-03-04T03:40:02.578Z,-1.2
2018-03-04T03:45:03.111Z,-1.2
2018-03-04T03:50:02.621Z,-1.5
2018-03-04T03:55:03.166Z,-1.7
2018-03-04T04:00:03.024Z,-1.7
2018-03-04T04:05:02.608Z,-1.8
2018-03-04T04:10:03.195Z,-1.8
2018-03-04T04:15:02.668Z,-2.0
2018-03-04T04:20:03.189Z,-2.0
2018-03-04T04:25:02.687Z,-2.0
2018-03-04T04:30:03.197Z,-2.2
2018-03-04T04:35:02.880Z,-2.2
2018-03-04T04:40:02.392Z,-2.2
2018-03-04T04:45:02.842Z,-2.2
2018-03-04T04:50:02.396Z,-2.2
2018-03-04T04:55:02.958Z,-2.2
2018-03-04T05:00:02.393Z,-2.0
2018-03-04T05:05:02.883Z,-2.0
2018-03-04T05:10:02.863Z,-1.8
2018-03-04T05:15:03.390Z,-1.7
2018-03-04T05:20:02.889Z,-1.5
2018-03-04T05:25:02.513Z,-1.5
2018-03-04T05:30:03.234Z,-1.5
2018-03-04T05:35:02.671Z,-1.2
2018-03-04T05:40:03.214Z,-1.1
2018-03-04T05:45:02.688Z,-1.1
2018-03-04T05:50:02.607Z,-1.1
2018-03-04T05:55:03.103Z,-0.8
2018-03-04T06:00:02.544Z,-0.8
2018-03-04T06:05:03.022Z,-0.6
2018-03-04T06:10:02.512Z,-0.6
2018-03-04T06:15:02.990Z,-0.6
2018-03-04T06:20:02.514Z,-0.6
2018-03-04T06:25:03.050Z,-0.5
2018-03-04T06:30:02.572Z,-0.5
2018-03-04T06:35:03.130Z,-0.3
2018-03-04T06:40:02.668Z,-0.3
2018-03-04T06:45:03.179Z,-0.3
2018-03-04T06:50:02.705Z,0.0
2018-03-04T06:55:03.314Z,0.0
2018-03-04T07:00:02.835Z,0.1
2018-03-04T07:05:03.383Z,0.1
2018-03-04T07:10:02.883Z,0.3
2018-03-04T07:15:02.415Z,0.4
2018-03-04T07:20:03.023Z,0.4
2018-03-04T07:25:02.457Z,0.6
2018-03-04T07:30:02.913Z,0.6
2018-03-04T07:35:02.507Z,0.6
2018-03-04T07:40:03.261Z,0.7
2018-03-04T07:45:02.763Z,0.7
2018-03-04T07:50:03.241Z,0.8
2018-03-04T07:55:02.706Z,0.8
2018-03-04T08:00:03.516Z,1.1
2018-03-04T08:05:03.145Z,1.2
2018-03-04T08:10:02.684Z,1.3
2018-03-04T08:15:03.202Z,1.3
2018-03-04T08:20:02.699Z,1.6
2018-03-04T08:25:03.198Z,1.7
2018-03-04T08:30:02.652Z,1.8
2018-03-04T08:35:03.204Z,1.8
2018-03-04T08:40:02.784Z,2.2
2018-03-04T08:45:03.346Z,2.2
2018-03-04T08:50:02.814Z,2.5
2018-03-04T08:55:03.275Z,3.2
2018-03-04T09:00:02.701Z,3.5
2018-03-04T09:05:03.289Z,3.7
2018-03-04T09:10:02.987Z,4.0
2018-03-04T09:15:02.446Z,4.0
2018-03-04T09:20:02.929Z,4.3
2018-03-04T09:25:02.408Z,4.5
2018-03-04T09:30:02.932Z,5.0
2018-03-04T09:35:02.511Z,5.8
2018-03-04T09:40:03.135Z,6.1
2018-03-04T09:45:02.587Z,7.0
2018-03-04T09:50:03.120Z,7.0
2018-03-04T09:55:02.602Z,7.4
2018-03-04T10:00:03.106Z,7.5
2018-03-04T10:05:02.692Z,7.4
2018-03-04T10:10:03.284Z,7.6
2018-03-04T10:15:02.734Z,7.0
2018-03-04T10:20:03.303Z,7.1
2018-03-04T10:25:02.713Z,8.3
2018-03-04T10:30:03.217Z,8.0
2018-03-04T10:35:02.813Z,8.6
2018-03-04T10:40:02.446Z,9.3
2018-03-04T10:45:02.971Z,9.1
2018-03-04T10:50:02.469Z,8.8
2018-03-04T10:55:02.981Z,10.0
2018-03-04T11:00:02.506Z,9.6
2018-03-04T11:05:02.978Z,10.0
2018-03-04T11:10:02.564Z,9.8
2018-03-04T11:15:03.107Z,10.1
2018-03-04T11:20:02.650Z,10.1
2018-03-04T11:25:03.123Z,10.1
2018-03-04T11:30:02.644Z,10.3
2018-03-04T11:35:03.210Z,11.0
2018-03-04T11:40:02.772Z,11.1
2018-03-04T11:45:03.314Z,10.8
2018-03-04T11:50:02.818Z,11.0
2018-03-04T11:55:03.334Z,11.1
2018-03-04T12:00:02.898Z,11.3
2018-03-04T12:05:02.442Z,12.0
2018-03-04T12:10:03.037Z,11.6
2018-03-04T12:15:02.463Z,11.6
2018-03-04T12:20:02.976Z,12.1
2018-03-04T12:25:02.472Z,12.1
2018-03-04T12:30:02.932Z,12.0
2018-03-04T12:35:02.494Z,12.1
2018-03-04T12:40:03.070Z,12.8
2018-03-04T12:45:02.513Z,12.8
2018-03-04T12:50:03.054Z,12.1
2018-03-04T12:55:02.552Z,12.8
2018-03-04T13:00:03.137Z,13.1
2018-03-04T13:05:02.681Z,12.6
2018-03-04T13:10:03.280Z,13.6
2018-03-04T13:15:02.778Z,12.8
2018-03-04T13:20:02.434Z,13.1
2018-03-04T13:25:02.912Z,12.8
2018-03-04T13:30:03.387Z,12.8
2018-03-04T13:35:02.946Z,12.8
2018-03-04T13:40:02.480Z,12.8
2018-03-04T13:45:02.976Z,12.8
2018-03-04T13:50:02.546Z,12.8
2018-03-04T13:55:03.098Z,12.8
2018-03-04T14:00:02.875Z,12.6
2018-03-04T14:05:03.354Z,13.6
2018-03-04T14:10:02.993Z,12.8
2018-03-04T14:15:02.488Z,12.1
2018-03-04T14:20:03.000Z,12.1
2018-03-04T14:25:02.462Z,12.1
2018-03-04T14:30:02.948Z,12.5
2018-03-04T14:35:02.428Z,12.5
2018-03-04T14:40:02.972Z,12.3
2018-03-04T14:45:02.525Z,12.1
2018-03-04T14:50:03.163Z,12.1
2018-03-04T14:55:02.648Z,11.8
2018-03-04T15:00:03.196Z,11.6
2018-03-04T15:05:02.710Z,11.6
2018-03-04T15:10:03.328Z,11.6
2018-03-04T15:15:02.886Z,11.6
2018-03-04T15:20:02.509Z,11.6
2018-03-04T15:25:03.066Z,11.3
2018-03-04T15:30:02.610Z,11.3
2018-03-04T15:35:03.247Z,11.1
2018-03-04T15:40:02.835Z,11.1
2018-03-04T15:45:03.016Z,11.0
2018-03-04T15:50:02.993Z,10.8
2018-03-04T15:55:02.551Z,10.8
2018-03-04T16:00:03.271Z,10.6
2018-03-04T16:05:02.796Z,10.5
2018-03-04T16:10:02.448Z,10.5
2018-03-04T16:15:02.942Z,10.3
2018-03-04T16:20:02.451Z,10.1
2018-03-04T16:25:03.184Z,10.1
2018-03-04T16:30:02.763Z,10.1
2018-03-04T16:35:02.589Z,9.8
2018-03-04T16:40:03.180Z,9.8
2018-03-04T16:45:02.769Z,9.6
2018-03-04T16:50:03.356Z,9.5
2018-03-04T16:55:03.177Z,9.1
2018-03-04T17:00:02.719Z,9.0
2018-03-04T17:05:03.210Z,9.0
2018-03-04T17:10:02.790Z,9.0
2018-03-04T17:15:03.269Z,9.0
2018-03-04T17:20:02.890Z,8.8
2018-03-04T17:25:02.401Z,8.8
2018-03-04T17:30:02.927Z,8.6
2018-03-04T17:35:02.591Z,8.6
2018-03-04T17:40:03.268Z,8.6
2018-03-04T17:45:02.921Z,8.6
2018-03-04T17:50:02.664Z,8.8
2018-03-04T17:55:03.225Z,8.8
2018-03-04T18:00:02.825Z,8.8
2018-03-04T18:05:02.408Z,8.8
2018-03-04T18:10:03.029Z,8.6
2018-03-04T18:15:02.601Z,8.6
2018-03-04T18:20:03.231Z,8.5
2018-03-04T18:25:02.754Z,8.5
2018-03-04T18:30:03.336Z,8.6
2018-03-04T18:35:02.854Z,9.0
2018-03-04T18:40:02.491Z,9.0
2018-03-04T18:45:03.124Z,9.0
2018-03-04T18:50:02.646Z,9.1
2018-03-04T18:55:03.191Z,8.8
2018-03-04T19:00:02.782Z,8.6
2018-03-04T19:05:03.302Z,8.1
2018-03-04T19:10:02.827Z,8.1
2018-03-04T19:15:03.352Z,8.1
2018-03-04T19:20:02.932Z,8.0
2018-03-04T19:25:02.473Z,8.0
2018-03-04T19:30:03.100Z,8.0
2018-03-04T19:35:02.875Z,8.3
2018-03-04T19:40:02.560Z,8.0
2018-03-04T19:45:03.427Z,7.6
2018-03-04T19:50:03.106Z,7.5
2018-03-04T19:55:03.150Z,7.4
2018-03-04T20:00:02.800Z,7.4
2018-03-04T20:05:02.490Z,7.4
2018-03-04T20:10:03.244Z,7.4
2018-03-04T20:15:02.822Z,7.1
2018-03-04T20:20:02.506Z,7.1
2018-03-04T20:25:03.108Z,7.0
2018-03-04T20:30:02.777Z,6.9
2018-03-04T20:35:02.446Z,6.9
2018-03-04T20:40:03.301Z,6.9
2018-03-04T20:45:03.187Z,6.1
2018-03-04T20:50:02.791Z,5.5
2018-03-04T20:55:02.830Z,5.5
2018-03-04T21:00:02.614Z,5.5
2018-03-04T21:05:03.331Z,5.4
2018-03-04T21:10:02.884Z,5.4
2018-03-04T21:15:02.478Z,5.4
2018-03-04T21:20:02.941Z,5.4
2018-03-04T21:25:02.494Z,5.4
2018-03-04T21:30:03.020Z,5.5
2018-03-04T21:35:02.451Z,5.5
2018-03-04T21:40:03.129Z,5.5
2018-03-04T21:45:02.673Z,5.5
2018-03-04T21:50:03.252Z,5.5
2018-03-04T21:55:03.010Z,5.8
2018-03-04T22:00:02.775Z,5.8
2018-03-04T22:05:03.366Z,5.8
2018-03-04T22:10:02.860Z,5.8
2018-03-04T22:15:03.316Z,5.8
2018-03-04T22:20:02.805Z,5.8
2018-03-04T22:25:03.320Z,5.8
2018-03-04T22:30:03.190Z,5.5
2018-03-04T22:35:02.723Z,5.8
2018-03-04T22:40:03.445Z,5.9
2018-03-04T22:45:02.944Z,6.5
2018-03-04T22:50:02.424Z,6.5
2018-03-04T22:55:02.937Z,6.5
2018-03-04T23:00:02.433Z,6.5
2018-03-04T23:05:02.979Z,6.5
2018-03-04T23:10:02.520Z,6.5
2018-03-04T23:15:03.021Z,6.5
2018-03-04T23:20:02.645Z,6.4
2018-03-04T23:25:03.155Z,6.4
2018-03-04T23:30:02.662Z,6.4
2018-03-04T23:35:03.230Z,6.1
2018-03-04T23:40:02.817Z,6.0
2018-03-04T23:45:03.284Z,6.0
2018-03-04T23:50:02.812Z,5.9
2018-03-04T23:55:03.331Z,5.9
